Terminal Aerodrome Forecast
Issued by NWS Knoxville/Tri Cities, TN

Home | Current Version | Previous Version | Text Only | Print | Product List | Glossary On
Versions: 1 2 3 4 5 6 7 8 9 10 11 12 13 14 15 16 17 18 19 20 21 22 23 24 25 26 27 28
000
FTUS44 KMRX 270528
TAFTYS
TAF
KTYS 270528Z 2706/2806 36009KT 6SM -SHRA BR SCT015 OVC035
     FM270730 35012KT P6SM BKN015 OVC025
     FM271300 36008KT P6SM BKN025
     FM271600 33008KT P6SM BKN045 BKN100
     FM272000 32010KT P6SM VCSH OVC035
     FM280300 33009KT P6SM OVC035=

USA.gov is the U.S. government's official web portal to all federal, state and local government web resources and services.